Time;durP1;ratioP1;P1;durP2;ratioP2;P2;SDS_P1;SDS_P2;PMS_P1;PMS_P2;Temp;Humidity;BMP_temperature;BMP_pressure;BME280_temperature;BME280_humidity;BME280_pressure;Samples;Min_cycle;Max_cycle;Signal;HPM_P1;HPM_P2
2021/08/06 00:00:37;;;;;;;;;2.60;1.00;;;;;;;;5007474;28;8787;-86
2021/08/06 00:03:05;;;;;;;;;2.40;2.40;;;;;;;;5023614;28;8857;-86
2021/08/06 00:05:32;;;;;;;;;3.00;1.20;;;;;;;;5025336;28;8928;-86
2021/08/06 00:07:59;;;;;;;;;1.40;1.40;;;;;;;;5025069;28;8882;-86
2021/08/06 00:10:27;;;;;;;;;3.60;2.00;;;;;;;;5025255;28;8888;-85
2021/08/06 00:12:56;;;;;;;;;1.40;1.40;;;;;;;;5025364;28;8853;-85
2021/08/06 00:15:23;;;;;;;;;2.20;1.60;;;;;;;;5023819;28;8892;-85
2021/08/06 00:17:51;;;;;;;;;2.40;2.40;;;;;;;;5025719;28;8886;-86
2021/08/06 00:20:18;;;;;;;;;2.00;2.00;;;;;;;;5006836;28;8897;-86
2021/08/06 00:22:45;;;;;;;;;2.00;2.00;;;;;;;;5011922;28;8882;-86
2021/08/06 00:25:13;;;;;;;;;1.00;1.00;;;;;;;;5025055;28;9632;-86
2021/08/06 00:27:40;;;;;;;;;2.00;2.00;;;;;;;;5007586;28;8882;-86
2021/08/06 00:30:10;;;;;;;;;2.00;2.00;;;;;;;;5024902;28;8869;-87
2021/08/06 00:32:37;;;;;;;;;1.00;1.00;;;;;;;;5023992;28;8863;-86
2021/08/06 00:35:05;;;;;;;;;1.80;1.80;;;;;;;;5025754;28;8870;-86
2021/08/06 00:37:32;;;;;;;;;2.20;2.20;;;;;;;;5023550;28;8893;-86
2021/08/06 00:40:00;;;;;;;;;3.00;1.60;;;;;;;;5025267;28;8878;-87
2021/08/06 00:42:27;;;;;;;;;3.20;2.60;;;;;;;;5024300;28;8866;-86
2021/08/06 00:44:54;;;;;;;;;2.00;2.00;;;;;;;;5024703;28;8890;-85
2021/08/06 00:47:23;;;;;;;;;2.25;2.25;;;;;;;;5025203;28;8896;-86
2021/08/06 00:49:50;;;;;;;;;2.50;1.00;;;;;;;;5024267;28;8900;-86
2021/08/06 00:52:18;;;;;;;;;1.20;1.20;;;;;;;;5025064;28;9001;-86
2021/08/06 00:54:45;;;;;;;;;2.00;2.00;;;;;;;;4989931;28;8858;-86
2021/08/06 00:57:13;;;;;;;;;3.20;2.20;;;;;;;;5025232;28;8858;-86
2021/08/06 00:59:40;;;;;;;;;3.25;3.00;;;;;;;;5024534;28;8854;-86
2021/08/06 01:02:12;;;;;;;;;2.00;2.00;;;;;;;;5024519;28;8840;-84
2021/08/06 01:04:51;;;;;;;;;3.20;2.00;;;;;;;;5024881;28;8872;-85
2021/08/06 01:07:23;;;;;;;;;1.00;1.00;;;;;;;;5022600;28;8855;-86
2021/08/06 01:09:55;;;;;;;;;1.00;1.00;;;;;;;;5025265;28;8889;-87
2021/08/06 01:12:27;;;;;;;;;2.40;2.40;;;;;;;;5005990;28;8870;-86
2021/08/06 01:15:00;;;;;;;;;3.00;1.20;;;;;;;;5024868;28;8972;-86
2021/08/06 01:17:27;;;;;;;;;4.40;4.00;;;;;;;;5024319;28;8862;-86
2021/08/06 01:20:03;;;;;;;;;1.20;1.20;;;;;;;;5007171;28;8874;-86
2021/08/06 01:22:40;;;;;;;;;1.00;1.00;;;;;;;;5024527;28;8858;-85
2021/08/06 01:25:09;;;;;;;;;1.60;1.60;;;;;;;;5023463;28;8850;-85
2021/08/06 01:27:38;;;;;;;;;1.00;1.00;;;;;;;;5024398;28;8886;-86
2021/08/06 01:30:08;;;;;;;;;2.00;2.00;;;;;;;;5023119;28;8862;-86
2021/08/06 01:32:35;;;;;;;;;2.80;2.80;;;;;;;;5024179;28;8881;-86
2021/08/06 01:35:03;;;;;;;;;2.20;2.20;;;;;;;;5024660;28;8846;-86
2021/08/06 01:37:30;;;;;;;;;2.00;2.00;;;;;;;;5023254;28;8897;-85
2021/08/06 01:39:58;;;;;;;;;2.20;2.20;;;;;;;;5005286;28;8863;-85
2021/08/06 01:42:33;;;;;;;;;2.00;2.00;;;;;;;;5005826;28;8884;-86
2021/08/06 01:45:04;;;;;;;;;1.80;1.80;;;;;;;;5024064;28;8930;-85
2021/08/06 01:50:21;;;;;;;;;3.00;1.00;;;;;;;;4948634;28;8921;-86
2021/08/06 01:52:50;;;;;;;;;1.00;1.00;;;;;;;;4955706;28;8903;-86
2021/08/06 01:55:18;;;;;;;;;1.00;1.00;;;;;;;;4963407;28;8893;-86
2021/08/06 01:57:47;;;;;;;;;1.80;1.80;;;;;;;;4967136;28;9041;-86
2021/08/06 02:00:17;;;;;;;;;3.60;1.20;;;;;;;;4949534;28;8875;-86
2021/08/06 02:02:44;;;;;;;;;2.80;1.40;;;;;;;;4967058;28;9657;-86
2021/08/06 02:05:12;;;;;;;;;1.00;1.00;;;;;;;;4970604;28;8891;-87
2021/08/06 02:07:42;;;;;;;;;2.40;2.40;;;;;;;;4951835;28;8902;-86
2021/08/06 02:10:11;;;;;;;;;2.00;1.00;;;;;;;;4967848;28;9029;-86
2021/08/06 02:12:38;;;;;;;;;2.00;2.00;;;;;;;;4964948;28;9328;-86
2021/08/06 02:15:07;;;;;;;;;2.00;2.00;;;;;;;;4951175;28;9011;-86
2021/08/06 02:17:37;;;;;;;;;3.20;1.80;;;;;;;;5026443;28;9022;-86
2021/08/06 02:20:05;;;;;;;;;2.00;2.00;;;;;;;;5027531;28;8865;-86
2021/08/06 02:22:34;;;;;;;;;2.00;0.40;;;;;;;;5027534;28;8861;-86
2021/08/06 02:25:01;;;;;;;;;2.80;1.20;;;;;;;;5026864;28;8853;-86
2021/08/06 02:27:29;;;;;;;;;2.00;2.00;;;;;;;;5027479;28;8866;-86
2021/08/06 02:29:58;;;;;;;;;2.00;2.00;;;;;;;;5026062;28;8881;-86
2021/08/06 02:32:26;;;;;;;;;2.00;2.00;;;;;;;;5027068;28;9625;-86
2021/08/06 02:34:56;;;;;;;;;2.00;2.00;;;;;;;;5026445;28;8872;-85
2021/08/06 02:37:23;;;;;;;;;3.25;3.25;;;;;;;;5026624;28;9011;-86
2021/08/06 02:39:50;;;;;;;;;4.00;2.75;;;;;;;;5026847;28;8892;-86
2021/08/06 02:42:18;;;;;;;;;4.00;1.75;;;;;;;;5026795;28;8887;-86
2021/08/06 02:44:45;;;;;;;;;3.00;3.00;;;;;;;;4993825;28;8857;-86
2021/08/06 02:47:12;;;;;;;;;3.20;2.00;;;;;;;;5025792;28;8983;-86
2021/08/06 02:49:40;;;;;;;;;3.00;2.00;;;;;;;;5027135;28;8953;-86
2021/08/06 02:52:09;;;;;;;;;2.00;2.00;;;;;;;;5026600;28;8990;-86
2021/08/06 02:54:37;;;;;;;;;2.00;2.00;;;;;;;;5009018;28;9075;-86
2021/08/06 02:57:05;;;;;;;;;3.60;2.00;;;;;;;;5025704;28;8881;-86
2021/08/06 02:59:32;;;;;;;;;3.00;2.25;;;;;;;;5025316;28;9701;-86
2021/08/06 03:02:04;;;;;;;;;2.00;2.00;;;;;;;;5025224;28;8918;-85
2021/08/06 03:04:32;;;;;;;;;2.00;2.00;;;;;;;;5025296;28;8920;-85
2021/08/06 03:07:00;;;;;;;;;3.80;2.00;;;;;;;;5026710;28;8926;-85
2021/08/06 03:09:29;;;;;;;;;3.40;2.00;;;;;;;;5025094;28;8900;-85
2021/08/06 03:11:56;;;;;;;;;2.00;2.00;;;;;;;;5015900;28;8884;-86
2021/08/06 03:14:23;;;;;;;;;6.40;3.00;;;;;;;;5025692;28;8894;-86
2021/08/06 03:16:50;;;;;;;;;2.00;2.00;;;;;;;;5025934;28;8864;-85
2021/08/06 03:19:18;;;;;;;;;3.00;3.00;;;;;;;;5008571;28;8971;-86
2021/08/06 03:21:45;;;;;;;;;5.50;2.50;;;;;;;;5026006;28;8907;-85
2021/08/06 03:24:12;;;;;;;;;2.50;1.75;;;;;;;;5026241;28;8873;-85
2021/08/06 03:26:41;;;;;;;;;2.00;2.00;;;;;;;;5025196;28;8908;-85
2021/08/06 03:29:08;;;;;;;;;2.50;2.50;;;;;;;;5026115;28;8888;-85
2021/08/06 03:31:35;;;;;;;;;2.00;2.00;;;;;;;;5006767;28;8801;-86
2021/08/06 03:34:03;;;;;;;;;2.00;2.00;;;;;;;;5026049;28;8873;-85
2021/08/06 03:36:30;;;;;;;;;2.75;2.75;;;;;;;;5025484;28;8872;-85
2021/08/06 03:38:57;;;;;;;;;5.25;2.00;;;;;;;;5025009;28;8865;-85
2021/08/06 03:41:25;;;;;;;;;3.25;1.50;;;;;;;;5025753;28;8867;-85
2021/08/06 03:43:54;;;;;;;;;3.25;2.00;;;;;;;;5024179;28;8872;-85
2021/08/06 03:46:21;;;;;;;;;1.67;1.67;;;;;;;;5025752;28;9019;-85
2021/08/06 03:48:49;;;;;;;;;2.00;2.00;;;;;;;;5018584;28;8879;-87
2021/08/06 03:51:17;;;;;;;;;2.00;2.00;;;;;;;;5019203;28;8999;-85
2021/08/06 03:53:44;;;;;;;;;4.25;2.00;;;;;;;;5008115;28;8999;-85
2021/08/06 03:56:12;;;;;;;;;2.25;2.25;;;;;;;;5025011;28;9702;-85
2021/08/06 03:58:40;;;;;;;;;3.50;2.75;;;;;;;;5008584;28;9093;-85
2021/08/06 04:01:08;;;;;;;;;1.75;1.75;;;;;;;;5005842;28;8837;-85
2021/08/06 04:03:36;;;;;;;;;1.50;1.50;;;;;;;;5025896;28;9003;-85
2021/08/06 04:06:03;;;;;;;;;4.00;2.75;;;;;;;;5024509;28;8873;-85
2021/08/06 04:08:30;;;;;;;;;4.00;3.00;;;;;;;;5025271;28;9631;-87
2021/08/06 04:10:57;;;;;;;;;2.25;2.25;;;;;;;;5024599;28;8849;-86
2021/08/06 04:13:25;;;;;;;;;2.00;2.00;;;;;;;;5024879;28;8907;-87
2021/08/06 04:15:52;;;;;;;;;2.50;2.50;;;;;;;;5025514;28;8875;-89
2021/08/06 04:18:22;;;;;;;;;1.00;1.00;;;;;;;;5023705;28;8889;-89
2021/08/06 04:20:49;;;;;;;;;1.25;1.25;;;;;;;;5008272;28;8896;-88
2021/08/06 04:23:16;;;;;;;;;1.75;1.75;;;;;;;;5025269;28;9019;-89
2021/08/06 04:25:44;;;;;;;;;3.00;3.00;;;;;;;;5025279;28;9003;-88
2021/08/06 04:36:57;;;;;;;;;2.00;0.75;;;;;;;;5020048;28;8827;-87
2021/08/06 04:39:25;;;;;;;;;1.00;1.00;;;;;;;;5025193;28;8910;-87
2021/08/06 04:41:52;;;;;;;;;2.25;2.25;;;;;;;;5008116;28;8860;-88
2021/08/06 04:44:20;;;;;;;;;1.00;1.00;;;;;;;;5024643;28;8984;-89
2021/08/06 04:46:47;;;;;;;;;3.25;2.00;;;;;;;;5008206;28;8846;-86
2021/08/06 04:49:15;;;;;;;;;1.00;1.00;;;;;;;;5024280;28;8874;-88
2021/08/06 04:51:42;;;;;;;;;5.00;3.00;;;;;;;;5025216;28;8866;-88
2021/08/06 04:54:10;;;;;;;;;1.50;1.50;;;;;;;;5007205;28;8924;-89
2021/08/06 04:56:40;;;;;;;;;2.25;2.25;;;;;;;;5024802;28;8882;-89
2021/08/06 04:59:08;;;;;;;;;1.75;1.75;;;;;;;;5024944;28;8897;-87
2021/08/06 05:01:36;;;;;;;;;3.75;1.00;;;;;;;;5023660;28;8857;-87
2021/08/06 05:04:03;;;;;;;;;2.00;1.50;;;;;;;;5025992;28;8890;-87
2021/08/06 05:06:30;;;;;;;;;5.25;2.50;;;;;;;;5010563;28;8866;-88
2021/08/06 05:08:58;;;;;;;;;2.00;2.00;;;;;;;;5008161;28;8876;-87
2021/08/06 05:11:28;;;;;;;;;3.00;2.00;;;;;;;;5023200;28;8916;-85
2021/08/06 05:13:55;;;;;;;;;2.00;2.00;;;;;;;;5024712;28;8875;-87
2021/08/06 05:16:22;;;;;;;;;2.25;1.00;;;;;;;;5024389;28;9699;-84
2021/08/06 05:18:49;;;;;;;;;2.50;2.00;;;;;;;;5024326;28;8874;-86
2021/08/06 05:21:17;;;;;;;;;2.00;2.00;;;;;;;;5025071;28;8866;-85
2021/08/06 05:23:44;;;;;;;;;1.00;1.00;;;;;;;;5024486;28;8882;-85
2021/08/06 05:26:11;;;;;;;;;2.50;2.00;;;;;;;;5011915;28;8888;-86
2021/08/06 05:28:40;;;;;;;;;2.50;2.50;;;;;;;;5023439;28;8893;-86
2021/08/06 05:31:07;;;;;;;;;1.50;1.50;;;;;;;;5027761;28;8823;-87
2021/08/06 05:33:35;;;;;;;;;1.50;1.50;;;;;;;;5028228;28;8858;-87
2021/08/06 05:36:02;;;;;;;;;1.00;1.00;;;;;;;;5027797;28;8890;-85
2021/08/06 05:38:29;;;;;;;;;2.25;1.00;;;;;;;;5028248;28;8858;-85
2021/08/06 05:40:56;;;;;;;;;1.50;1.50;;;;;;;;5027227;28;8900;-86
2021/08/06 05:43:24;;;;;;;;;1.75;0.25;;;;;;;;5010634;28;8874;-85
2021/08/06 05:45:53;;;;;;;;;2.25;2.00;;;;;;;;5009229;28;8881;-86
2021/08/06 05:48:20;;;;;;;;;2.00;2.00;;;;;;;;5027891;28;8859;-86
2021/08/06 05:50:47;;;;;;;;;1.50;1.50;;;;;;;;5010204;28;8878;-87
2021/08/06 05:53:14;;;;;;;;;0.75;0.75;;;;;;;;5027866;28;10053;-85
2021/08/06 05:55:42;;;;;;;;;2.50;1.00;;;;;;;;5027490;28;10082;-86
2021/08/06 05:58:09;;;;;;;;;1.00;1.00;;;;;;;;5009299;28;8881;-85
2021/08/06 06:00:36;;;;;;;;;2.75;1.50;;;;;;;;5026817;28;8797;-85
2021/08/06 06:03:05;;;;;;;;;1.00;1.00;;;;;;;;5026782;28;8866;-86
2021/08/06 06:05:32;;;;;;;;;1.00;1.00;;;;;;;;5027666;28;8854;-86
2021/08/06 06:08:00;;;;;;;;;1.00;1.00;;;;;;;;5026896;28;8891;-84
2021/08/06 06:10:28;;;;;;;;;1.00;1.00;;;;;;;;5027404;28;9763;-85
2021/08/06 06:15:47;;;;;;;;;1.00;1.00;;;;;;;;5023277;28;8882;-85
2021/08/06 06:18:21;;;;;;;;;1.00;1.00;;;;;;;;5022737;28;9020;-85
2021/08/06 06:26:33;;;;;;;;;0.25;0.25;;;;;;;;5024793;28;8896;-85
2021/08/06 06:29:01;;;;;;;;;0.00;0.00;;;;;;;;5026679;28;8878;-85
2021/08/06 06:31:28;;;;;;;;;1.00;1.00;;;;;;;;5009234;28;8787;-85
2021/08/06 06:33:57;;;;;;;;;1.00;1.00;;;;;;;;5025935;28;8874;-85
2021/08/06 06:36:24;;;;;;;;;0.50;0.50;;;;;;;;5027196;28;10529;-85
2021/08/06 06:38:51;;;;;;;;;1.25;1.25;;;;;;;;5026974;28;8866;-84
2021/08/06 06:41:19;;;;;;;;;2.00;0.75;;;;;;;;5024920;28;9083;-85
2021/08/06 06:43:46;;;;;;;;;2.00;0.00;;;;;;;;5026676;28;8854;-85
2021/08/06 06:46:13;;;;;;;;;0.50;0.50;;;;;;;;5025817;28;8902;-85
2021/08/06 06:48:41;;;;;;;;;0.75;0.75;;;;;;;;5027040;28;8975;-85
2021/08/06 06:51:10;;;;;;;;;2.25;1.00;;;;;;;;5026087;28;8979;-86
2021/08/06 06:53:37;;;;;;;;;1.25;1.25;;;;;;;;5009900;28;8862;-85
2021/08/06 06:56:06;;;;;;;;;2.00;0.60;;;;;;;;4992052;28;8861;-85
2021/08/06 07:11:37;;;;;;;;;1.00;1.00;;;;;;;;5027591;28;9589;-85
2021/08/06 07:14:05;;;;;;;;;0.00;0.00;;;;;;;;5026692;28;8923;-85
2021/08/06 07:16:32;;;;;;;;;3.00;2.00;;;;;;;;5025333;28;8872;-85
2021/08/06 07:19:00;;;;;;;;;0.00;0.00;;;;;;;;5025602;28;8906;-86
2021/08/06 07:21:27;;;;;;;;;0.75;0.00;;;;;;;;4991388;28;8870;-85
2021/08/06 07:23:54;;;;;;;;;2.20;0.00;;;;;;;;5026835;28;8894;-85
2021/08/06 07:26:22;;;;;;;;;0.00;0.00;;;;;;;;5025105;28;8889;-85
2021/08/06 07:28:51;;;;;;;;;0.00;0.00;;;;;;;;5026017;28;8882;-85
2021/08/06 07:31:18;;;;;;;;;0.00;0.00;;;;;;;;5025664;28;8783;-85
2021/08/06 07:33:45;;;;;;;;;0.00;0.00;;;;;;;;5025343;28;8870;-85
2021/08/06 07:36:12;;;;;;;;;0.20;0.20;;;;;;;;5026194;28;9678;-85
2021/08/06 07:38:40;;;;;;;;;1.00;1.00;;;;;;;;5019236;28;8907;-85
2021/08/06 07:41:07;;;;;;;;;1.20;0.00;;;;;;;;5025244;28;8872;-85
2021/08/06 07:43:35;;;;;;;;;0.00;0.00;;;;;;;;5023893;28;8886;-86
2021/08/06 07:46:03;;;;;;;;;0.20;0.20;;;;;;;;5025500;28;8885;-85
2021/08/06 07:48:31;;;;;;;;;1.20;1.20;;;;;;;;5024822;28;9635;-85
2021/08/06 07:51:07;;;;;;;;;1.40;0.00;;;;;;;;5025545;28;8898;-84
2021/08/06 07:53:37;;;;;;;;;2.80;0.40;;;;;;;;4976256;28;9027;-85
2021/08/06 07:56:06;;;;;;;;;0.80;0.00;;;;;;;;5006326;28;8873;-84
2021/08/06 07:58:40;;;;;;;;;2.00;1.00;;;;;;;;5025883;28;8900;-85
2021/08/06 08:01:09;;;;;;;;;0.00;0.00;;;;;;;;5017981;28;8907;-84
2021/08/06 08:03:36;;;;;;;;;0.00;0.00;;;;;;;;5008229;28;8904;-85
2021/08/06 08:06:04;;;;;;;;;3.40;1.00;;;;;;;;5007718;28;8903;-84
2021/08/06 08:08:32;;;;;;;;;0.00;0.00;;;;;;;;5024964;28;8914;-84
2021/08/06 08:11:00;;;;;;;;;0.00;0.00;;;;;;;;5025631;28;8869;-85
2021/08/06 08:13:31;;;;;;;;;0.60;0.00;;;;;;;;5024612;28;8894;-84
2021/08/06 08:15:59;;;;;;;;;0.00;0.00;;;;;;;;5021220;28;8983;-84
2021/08/06 08:18:27;;;;;;;;;0.20;0.20;;;;;;;;5024329;28;9249;-85
2021/08/06 08:20:55;;;;;;;;;0.00;0.00;;;;;;;;5021782;28;8883;-83
2021/08/06 08:23:22;;;;;;;;;1.00;1.00;;;;;;;;5015602;28;8881;-85
2021/08/06 08:25:53;;;;;;;;;0.00;0.00;;;;;;;;5024471;28;8864;-85
2021/08/06 08:28:21;;;;;;;;;0.00;0.00;;;;;;;;5014731;28;8855;-85
2021/08/06 08:30:49;;;;;;;;;1.00;1.00;;;;;;;;5020932;28;9630;-85
2021/08/06 08:33:17;;;;;;;;;0.00;0.00;;;;;;;;5024745;28;8873;-85
2021/08/06 08:35:46;;;;;;;;;0.20;0.00;;;;;;;;5022668;28;8865;-85
2021/08/06 08:38:14;;;;;;;;;0.00;0.00;;;;;;;;5024702;28;8892;-86
2021/08/06 08:43:45;;;;;;;;;0.80;0.00;;;;;;;;5000887;28;8850;-85
2021/08/06 08:46:12;;;;;;;;;1.00;1.00;;;;;;;;5024925;28;9597;-85
2021/08/06 08:52:04;;;;;;;;;0.00;0.00;;;;;;;;5019096;28;8863;-86
2021/08/06 08:54:31;;;;;;;;;1.80;0.20;;;;;;;;5018622;28;8964;-86
2021/08/06 08:56:58;;;;;;;;;0.40;0.40;;;;;;;;5006592;28;8899;-86
2021/08/06 08:59:26;;;;;;;;;1.00;1.00;;;;;;;;5024839;28;8893;-85
2021/08/06 09:01:53;;;;;;;;;0.00;0.00;;;;;;;;5023379;28;8833;-85
2021/08/06 09:04:23;;;;;;;;;0.00;0.00;;;;;;;;5025467;28;8862;-84
2021/08/06 09:06:51;;;;;;;;;1.60;0.20;;;;;;;;5026806;28;8858;-83
2021/08/06 09:09:21;;;;;;;;;0.00;0.00;;;;;;;;5025098;28;8842;-84
2021/08/06 09:11:51;;;;;;;;;0.00;0.00;;;;;;;;5027982;28;8854;-83
2021/08/06 09:14:22;;;;;;;;;2.80;0.00;;;;;;;;5026498;28;8866;-83
2021/08/06 09:16:57;;;;;;;;;1.40;0.60;;;;;;;;5027413;28;8877;-85
2021/08/06 09:19:25;;;;;;;;;6.40;6.40;;;;;;;;5023586;28;8862;-86
2021/08/06 09:21:52;;;;;;;;;9.80;8.40;;;;;;;;5028601;28;8877;-86
2021/08/06 09:24:21;;;;;;;;;3.20;3.20;;;;;;;;5025603;28;8858;-84
2021/08/06 09:26:49;;;;;;;;;2.60;1.80;;;;;;;;5027509;28;8874;-85
2021/08/06 09:29:18;;;;;;;;;2.60;2.60;;;;;;;;5026955;28;8860;-84
2021/08/06 09:31:56;;;;;;;;;3.60;2.40;;;;;;;;5025366;28;8802;-83
2021/08/06 09:34:25;;;;;;;;;1.20;1.20;;;;;;;;5025248;28;9604;-84
2021/08/06 09:36:59;;;;;;;;;0.20;0.20;;;;;;;;5025965;28;8876;-85
2021/08/06 09:39:31;;;;;;;;;0.00;0.00;;;;;;;;4990424;28;9650;-87
2021/08/06 09:41:59;;;;;;;;;2.60;0.00;;;;;;;;5005588;28;8845;-83
2021/08/06 09:44:27;;;;;;;;;0.80;0.80;;;;;;;;5023104;28;8869;-83
2021/08/06 09:46:56;;;;;;;;;0.60;0.60;;;;;;;;5008583;28;8875;-86
2021/08/06 09:49:23;;;;;;;;;2.40;1.20;;;;;;;;5026446;28;8954;-82
2021/08/06 09:51:52;;;;;;;;;1.80;1.80;;;;;;;;5027992;28;8902;-84
2021/08/06 09:54:35;;;;;;;;;4.25;4.25;;;;;;;;5027183;28;8885;-83
2021/08/06 09:57:06;;;;;;;;;5.75;5.75;;;;;;;;5025078;28;8872;-86
2021/08/06 09:59:35;;;;;;;;;6.00;6.00;;;;;;;;5027291;28;8983;-85
2021/08/06 10:02:17;;;;;;;;;5.75;4.75;;;;;;;;5008958;28;8817;-83
2021/08/06 10:04:46;;;;;;;;;3.50;3.50;;;;;;;;5026827;28;8849;-85
2021/08/06 10:07:15;;;;;;;;;1.50;1.50;;;;;;;;5008075;28;8907;-86
2021/08/06 10:09:44;;;;;;;;;0.20;0.20;;;;;;;;5027325;28;8910;-85
2021/08/06 10:12:11;;;;;;;;;1.25;1.25;;;;;;;;5026786;28;8971;-84
2021/08/06 10:14:39;;;;;;;;;1.25;1.25;;;;;;;;5025271;28;9618;-85
2021/08/06 10:17:06;;;;;;;;;6.00;6.00;;;;;;;;5021617;28;8869;-83
2021/08/06 10:19:35;;;;;;;;;15.75;15.75;;;;;;;;5025358;28;8861;-84
2021/08/06 10:22:03;;;;;;;;;18.75;17.50;;;;;;;;5026209;28;8983;-83
2021/08/06 10:24:31;;;;;;;;;21.25;21.25;;;;;;;;5026516;28;8869;-83
2021/08/06 10:27:00;;;;;;;;;21.75;21.75;;;;;;;;5026818;28;8857;-83
2021/08/06 10:29:28;;;;;;;;;24.75;24.50;;;;;;;;5005254;28;9642;-83
2021/08/06 10:32:13;;;;;;;;;23.25;23.00;;;;;;;;5007170;28;8820;-84
2021/08/06 10:35:05;;;;;;;;;18.75;17.25;;;;;;;;5024991;28;8867;-85
2021/08/06 10:38:10;;;;;;;;;7.00;7.00;;;;;;;;5024767;28;8934;-84
2021/08/06 10:41:17;;;;;;;;;15.75;15.75;;;;;;;;5024712;28;8888;-83
2021/08/06 10:44:02;;;;;;;;;27.50;27.25;;;;;;;;4991471;28;8872;-84
2021/08/06 10:47:02;;;;;;;;;0.40;0.00;;;;;;;;5022147;28;8920;-83
2021/08/06 10:49:31;;;;;;;;;0.00;0.00;;;;;;;;5023821;28;8953;-84
2021/08/06 10:52:15;;;;;;;;;1.80;1.00;;;;;;;;5027080;28;8887;-89
2021/08/06 10:54:43;;;;;;;;;7.40;7.40;;;;;;;;5025490;28;9003;-87
2021/08/06 10:57:28;;;;;;;;;23.25;21.50;;;;;;;;5026768;28;8990;-86
2021/08/06 10:59:58;;;;;;;;;8.25;8.25;;;;;;;;5018106;28;8865;-89
2021/08/06 11:02:40;;;;;;;;;2.60;1.20;;;;;;;;5026605;28;8825;-91
2021/08/06 11:05:35;;;;;;;;;0.00;0.00;;;;;;;;5013668;28;8862;-85
2021/08/06 11:08:04;;;;;;;;;1.40;1.40;;;;;;;;5004392;28;8892;-86
2021/08/06 11:10:49;;;;;;;;;1.00;1.00;;;;;;;;5014473;28;8930;-85
2021/08/06 11:13:50;;;;;;;;;0.60;0.60;;;;;;;;5012621;28;8860;-83
2021/08/06 11:16:19;;;;;;;;;0.40;0.40;;;;;;;;5003862;28;8900;-84
2021/08/06 11:18:48;;;;;;;;;0.00;0.00;;;;;;;;5026633;28;8892;-85
2021/08/06 11:21:18;;;;;;;;;0.00;0.00;;;;;;;;5025081;28;8892;-85
2021/08/06 11:23:54;;;;;;;;;0.00;0.00;;;;;;;;5026789;28;8888;-85
2021/08/06 11:26:22;;;;;;;;;0.00;0.00;;;;;;;;5014084;28;8857;-85
2021/08/06 11:28:49;;;;;;;;;0.40;0.40;;;;;;;;5007440;28;8873;-87
2021/08/06 11:31:19;;;;;;;;;0.00;0.00;;;;;;;;5008179;28;8855;-85
2021/08/06 11:33:50;;;;;;;;;11.00;11.00;;;;;;;;5025348;28;8901;-86
2021/08/06 11:36:18;;;;;;;;;18.50;18.50;;;;;;;;5025410;28;8896;-86
2021/08/06 11:38:45;;;;;;;;;16.75;16.75;;;;;;;;5024967;28;8892;-87
2021/08/06 11:41:12;;;;;;;;;18.25;17.25;;;;;;;;5026379;28;8970;-87
2021/08/06 11:43:40;;;;;;;;;9.25;9.25;;;;;;;;5008796;28;8873;-86
2021/08/06 11:46:09;;;;;;;;;2.00;2.00;;;;;;;;5007682;28;8865;-86
2021/08/06 11:48:53;;;;;;;;;0.00;0.00;;;;;;;;5026096;28;8880;-86
2021/08/06 11:51:21;;;;;;;;;0.00;0.00;;;;;;;;5023949;28;8999;-84
2021/08/06 11:53:48;;;;;;;;;1.00;1.00;;;;;;;;5008675;28;8999;-85
2021/08/06 11:56:17;;;;;;;;;0.00;0.00;;;;;;;;5024956;28;8963;-86
2021/08/06 11:58:45;;;;;;;;;0.20;0.20;;;;;;;;5025814;28;8934;-86
2021/08/06 12:01:21;;;;;;;;;1.40;1.40;;;;;;;;5025233;28;8858;-87
2021/08/06 12:03:49;;;;;;;;;2.40;1.00;;;;;;;;5024761;28;8876;-85
2021/08/06 12:06:20;;;;;;;;;0.60;0.60;;;;;;;;5025579;28;9012;-85
2021/08/06 12:08:48;;;;;;;;;1.00;1.00;;;;;;;;5025085;28;8873;-86
2021/08/06 12:11:17;;;;;;;;;0.00;0.00;;;;;;;;5026316;28;8868;-87
2021/08/06 12:13:50;;;;;;;;;0.80;0.80;;;;;;;;5025189;28;8900;-85
2021/08/06 12:16:19;;;;;;;;;0.20;0.20;;;;;;;;5004927;28;8912;-86
2021/08/06 12:18:53;;;;;;;;;1.20;1.20;;;;;;;;5025036;28;8872;-86
2021/08/06 12:21:25;;;;;;;;;1.00;1.00;;;;;;;;4992891;28;8876;-85
2021/08/06 12:23:54;;;;;;;;;0.60;0.60;;;;;;;;5025674;28;8881;-85
2021/08/06 12:26:38;;;;;;;;;1.00;1.00;;;;;;;;5020634;28;8880;-86
2021/08/06 12:29:09;;;;;;;;;2.00;0.80;;;;;;;;5024739;28;8881;-86
2021/08/06 12:31:48;;;;;;;;;0.00;0.00;;;;;;;;5005613;28;8785;-84
2021/08/06 12:34:18;;;;;;;;;1.20;0.60;;;;;;;;5024612;28;8915;-85
2021/08/06 12:36:59;;;;;;;;;1.00;1.00;;;;;;;;5024782;28;8872;-85
2021/08/06 12:39:27;;;;;;;;;0.00;0.00;;;;;;;;4979291;28;8932;-83
2021/08/06 12:41:55;;;;;;;;;1.00;1.00;;;;;;;;5025105;28;8967;-85
2021/08/06 12:44:29;;;;;;;;;0.00;0.00;;;;;;;;5024456;28;8904;-85
2021/08/06 12:47:02;;;;;;;;;0.00;0.00;;;;;;;;5006734;28;8876;-87
2021/08/06 12:49:31;;;;;;;;;0.00;0.00;;;;;;;;5024283;28;8867;-85
2021/08/06 12:52:03;;;;;;;;;1.00;1.00;;;;;;;;5023153;28;9621;-85
2021/08/06 12:54:42;;;;;;;;;0.00;0.00;;;;;;;;5025195;28;8930;-88
2021/08/06 12:57:12;;;;;;;;;0.00;0.00;;;;;;;;5020588;28;8965;-87
2021/08/06 12:59:43;;;;;;;;;1.40;0.60;;;;;;;;5021746;28;8999;-88
2021/08/06 13:02:22;;;;;;;;;1.60;1.00;;;;;;;;5023833;28;8801;-88
2021/08/06 13:04:52;;;;;;;;;0.20;0.20;;;;;;;;5023920;28;8869;-85
2021/08/06 13:07:36;;;;;;;;;0.00;0.00;;;;;;;;5024649;28;8891;-87
2021/08/06 13:10:09;;;;;;;;;1.00;1.00;;;;;;;;5021308;28;8857;-85
2021/08/06 13:12:37;;;;;;;;;0.00;0.00;;;;;;;;5021109;28;8874;-86
2021/08/06 13:15:05;;;;;;;;;0.80;0.80;;;;;;;;5022537;28;8861;-85
2021/08/06 13:17:33;;;;;;;;;1.00;1.00;;;;;;;;5006164;28;8865;-84
2021/08/06 13:20:00;;;;;;;;;1.60;0.20;;;;;;;;5024397;28;8890;-83
2021/08/06 13:22:30;;;;;;;;;1.00;1.00;;;;;;;;5022590;28;8951;-83
2021/08/06 13:24:57;;;;;;;;;0.80;0.60;;;;;;;;5025023;28;8876;-89
2021/08/06 13:27:26;;;;;;;;;0.80;0.80;;;;;;;;5022069;28;8911;-88
2021/08/06 13:29:53;;;;;;;;;0.60;0.60;;;;;;;;5023507;28;8857;-87
2021/08/06 13:32:20;;;;;;;;;0.40;0.40;;;;;;;;5020431;28;8820;-86
2021/08/06 13:34:47;;;;;;;;;0.00;0.00;;;;;;;;5019864;28;8857;-89
2021/08/06 13:37:15;;;;;;;;;0.40;0.40;;;;;;;;5021435;28;8863;-88
2021/08/06 13:39:43;;;;;;;;;0.60;0.60;;;;;;;;5019450;28;8927;-89
2021/08/06 13:42:11;;;;;;;;;0.60;0.60;;;;;;;;5020419;28;8985;-85
2021/08/06 13:44:38;;;;;;;;;0.80;0.80;;;;;;;;5021957;28;8861;-85
2021/08/06 13:47:06;;;;;;;;;0.00;0.00;;;;;;;;5022601;28;8869;-86
2021/08/06 13:49:34;;;;;;;;;0.00;0.00;;;;;;;;5021147;28;8861;-86
2021/08/06 13:52:01;;;;;;;;;1.40;0.00;;;;;;;;5025180;28;8865;-88
2021/08/06 13:54:29;;;;;;;;;0.00;0.00;;;;;;;;5027330;28;8988;-87
2021/08/06 13:56:57;;;;;;;;;0.00;0.00;;;;;;;;5023441;28;8869;-88
2021/08/06 13:59:25;;;;;;;;;0.00;0.00;;;;;;;;5026851;28;8868;-88
2021/08/06 14:01:52;;;;;;;;;0.80;0.60;;;;;;;;5024364;28;8910;-90
2021/08/06 14:04:20;;;;;;;;;0.20;0.20;;;;;;;;5024230;28;8864;-82
2021/08/06 14:06:48;;;;;;;;;0.80;0.80;;;;;;;;5020796;28;8844;-84
2021/08/06 14:09:15;;;;;;;;;0.00;0.00;;;;;;;;5021034;28;8882;-87
2021/08/06 14:11:43;;;;;;;;;0.80;0.80;;;;;;;;5023673;28;8887;-85
2021/08/06 14:14:12;;;;;;;;;0.00;0.00;;;;;;;;5025597;28;8879;-84
2021/08/06 14:16:39;;;;;;;;;0.00;0.00;;;;;;;;5026641;28;8894;-86
2021/08/06 14:19:07;;;;;;;;;0.40;0.40;;;;;;;;5024041;28;8881;-83
2021/08/06 14:21:34;;;;;;;;;0.20;0.20;;;;;;;;5025970;28;8900;-83
2021/08/06 14:24:02;;;;;;;;;0.00;0.00;;;;;;;;5007007;28;8887;-82
2021/08/06 14:26:29;;;;;;;;;1.20;0.80;;;;;;;;5008348;28;8864;-82
2021/08/06 14:28:58;;;;;;;;;0.00;0.00;;;;;;;;5025004;28;9584;-83
2021/08/06 14:31:30;;;;;;;;;1.00;1.00;;;;;;;;5023489;28;8801;-83
2021/08/06 14:33:57;;;;;;;;;0.00;0.00;;;;;;;;5025439;28;8864;-87
2021/08/06 14:36:25;;;;;;;;;0.80;0.80;;;;;;;;5021253;28;9842;-89
2021/08/06 14:39:11;;;;;;;;;0.80;0.80;;;;;;;;4988797;28;8884;-85
2021/08/06 14:41:40;;;;;;;;;1.40;1.40;;;;;;;;5026870;28;8910;-85
2021/08/06 14:44:09;;;;;;;;;0.00;0.00;;;;;;;;5024474;28;9631;-85
2021/08/06 14:46:39;;;;;;;;;1.00;1.00;;;;;;;;5025387;28;8857;-87
2021/08/06 14:49:06;;;;;;;;;0.00;0.00;;;;;;;;5022374;28;8890;-86
2021/08/06 14:51:33;;;;;;;;;0.80;0.80;;;;;;;;5023417;28;8867;-86
2021/08/06 14:54:00;;;;;;;;;0.40;0.40;;;;;;;;5020575;28;9010;-84
2021/08/06 14:56:28;;;;;;;;;0.60;0.60;;;;;;;;5022916;28;8924;-86
2021/08/06 14:58:55;;;;;;;;;0.80;0.80;;;;;;;;5024555;28;8911;-86
2021/08/06 15:01:24;;;;;;;;;0.00;0.00;;;;;;;;5004377;28;8824;-86
2021/08/06 15:03:52;;;;;;;;;0.00;0.00;;;;;;;;5019809;28;8840;-86
2021/08/06 15:06:19;;;;;;;;;1.20;0.80;;;;;;;;5024541;28;8899;-88
2021/08/06 15:08:48;;;;;;;;;1.60;0.00;;;;;;;;5022844;28;8873;-88
2021/08/06 15:11:15;;;;;;;;;0.00;0.00;;;;;;;;5022926;28;8876;-84
2021/08/06 15:13:43;;;;;;;;;0.60;0.60;;;;;;;;5025092;28;8869;-86
2021/08/06 15:16:10;;;;;;;;;0.20;0.20;;;;;;;;5023909;28;8892;-86
2021/08/06 15:18:38;;;;;;;;;1.80;0.40;;;;;;;;5028040;28;8888;-88
2021/08/06 15:21:06;;;;;;;;;1.00;0.80;;;;;;;;5026408;28;8860;-84
2021/08/06 15:23:34;;;;;;;;;1.60;0.60;;;;;;;;5015540;28;9610;-86
2021/08/06 15:26:01;;;;;;;;;0.00;0.00;;;;;;;;5021129;28;8862;-92
2021/08/06 15:28:28;;;;;;;;;0.20;0.20;;;;;;;;5016920;28;9681;-91
2021/08/06 15:30:56;;;;;;;;;0.00;0.00;;;;;;;;5026273;28;8866;-93
2021/08/06 15:33:23;;;;;;;;;0.60;0.60;;;;;;;;5008560;28;8856;-87
2021/08/06 15:35:51;;;;;;;;;0.40;0.40;;;;;;;;5009583;28;9011;-87
2021/08/06 15:38:21;;;;;;;;;2.00;1.00;;;;;;;;4998354;28;8864;-87
2021/08/06 15:40:49;;;;;;;;;0.60;0.40;;;;;;;;5006017;28;8872;-88
2021/08/06 15:43:16;;;;;;;;;0.80;0.80;;;;;;;;5006891;28;8886;-91
2021/08/06 15:45:44;;;;;;;;;0.40;0.40;;;;;;;;5005292;28;10115;-89
2021/08/06 15:48:11;;;;;;;;;1.00;1.00;;;;;;;;4989419;28;8860;-91